Time;durP1;ratioP1;P1;durP2;ratioP2;P2;SDS_P1;SDS_P2;PMS_P1;PMS_P2;Temp;Humidity;BMP_temperature;BMP_pressure;BME280_temperature;BME280_humidity;BME280_pressure;Samples;Min_cycle;Max_cycle;Signal;HPM_P1;HPM_P2
2021/04/10 00:01:48;;;;;;;3.80;2.83;;;7.00;47.50;;;;;;5064459;28;20212;-88
2021/04/10 00:04:24;;;;;;;4.53;3.50;;;6.90;47.40;;;;;;5059253;28;20225;-88
2021/04/10 00:06:54;;;;;;;4.63;3.13;;;6.90;48.10;;;;;;5042414;28;20297;-87
2021/04/10 00:09:21;;;;;;;5.43;3.07;;;6.80;48.20;;;;;;5040645;28;20268;-86
2021/04/10 00:11:49;;;;;;;3.30;2.50;;;6.70;49.30;;;;;;5042391;28;20555;-86
2021/04/10 00:14:16;;;;;;;4.23;2.97;;;6.60;50.00;;;;;;5040574;28;20320;-86
2021/04/10 00:16:44;;;;;;;4.43;3.10;;;6.60;49.30;;;;;;5044024;28;20195;-86
2021/04/10 00:19:14;;;;;;;4.70;2.93;;;6.50;48.50;;;;;;5057023;28;20221;-86
2021/04/10 00:21:40;;;;;;;3.80;2.70;;;6.50;51.80;;;;;;5048287;28;20202;-86
2021/04/10 00:24:08;;;;;;;5.33;3.30;;;6.50;50.60;;;;;;5040540;28;20230;-86
2021/04/10 00:26:34;;;;;;;5.33;2.53;;;6.50;51.10;;;;;;5037065;28;20555;-87
2021/04/10 00:29:02;;;;;;;5.00;2.87;;;6.50;50.30;;;;;;5048198;28;20302;-85
2021/04/10 00:31:28;;;;;;;8.37;2.50;;;6.50;50.20;;;;;;5037929;28;20250;-85
2021/04/10 00:33:55;;;;;;;3.73;2.60;;;6.50;49.70;;;;;;5052433;28;20687;-85
2021/04/10 00:36:21;;;;;;;5.67;2.83;;;6.50;50.70;;;;;;5052840;28;20297;-86
2021/04/10 00:38:48;;;;;;;5.50;2.57;;;6.60;50.20;;;;;;5042965;28;20229;-87
2021/04/10 00:41:15;;;;;;;5.17;2.60;;;6.60;50.70;;;;;;5052678;28;20217;-92
2021/04/10 00:43:57;;;;;;;4.60;2.70;;;6.50;52.80;;;;;;5036258;28;20230;-85
2021/04/10 00:46:25;;;;;;;3.97;2.47;;;6.40;52.00;;;;;;5058656;28;20201;-87
2021/04/10 00:48:51;;;;;;;4.70;2.80;;;6.30;55.30;;;;;;5055915;28;20230;-85
2021/04/10 00:51:17;;;;;;;4.43;2.90;;;6.30;56.50;;;;;;5047781;28;20245;-87
2021/04/10 00:53:44;;;;;;;4.07;2.80;;;6.40;54.90;;;;;;5036006;28;20230;-86
2021/04/10 00:59:32;;;;;;;7.27;2.80;;;6.40;54.50;;;;;;5045541;28;20568;-87
2021/04/10 01:02:02;;;;;;;4.97;2.57;;;6.40;53.60;;;;;;5049285;28;20211;-86
2021/04/10 01:04:28;;;;;;;4.93;2.83;;;6.30;54.50;;;;;;5036619;28;20222;-86
2021/04/10 01:06:55;;;;;;;5.87;3.33;;;6.30;56.10;;;;;;5035989;28;20558;-85
2021/04/10 01:09:21;;;;;;;3.87;2.57;;;6.30;54.90;;;;;;5056286;28;20233;-86
2021/04/10 01:12:16;;;;;;;3.60;2.30;;;6.20;55.80;;;;;;5048327;28;20198;-85
2021/04/10 01:14:52;;;;;;;5.17;2.77;;;6.20;54.90;;;;;;5053879;28;20669;-85
2021/04/10 01:17:25;;;;;;;5.57;3.07;;;6.10;54.90;;;;;;5055648;28;20198;-85
2021/04/10 01:20:06;;;;;;;4.33;2.97;;;6.10;54.60;;;;;;5052395;28;20199;-86
2021/04/10 01:22:53;;;;;;;4.87;2.73;;;6.20;56.60;;;;;;5036826;28;20689;-85
2021/04/10 01:25:27;;;;;;;7.23;2.70;;;6.10;56.90;;;;;;5042527;28;20202;-85
2021/04/10 01:27:57;;;;;;;4.50;2.73;;;6.10;55.90;;;;;;5051785;28;20222;-86
2021/04/10 01:30:27;;;;;;;4.03;2.73;;;6.10;56.10;;;;;;5060030;28;20216;-85
2021/04/10 01:32:58;;;;;;;4.37;2.43;;;6.10;55.40;;;;;;5042051;28;20284;-85
2021/04/10 01:35:28;;;;;;;5.37;2.70;;;6.00;55.90;;;;;;5051077;28;20547;-85
2021/04/10 01:37:59;;;;;;;4.73;3.00;;;5.90;56.30;;;;;;5046288;28;20566;-85
2021/04/10 01:40:29;;;;;;;5.27;2.70;;;5.90;57.20;;;;;;5044772;28;20727;-85
2021/04/10 01:42:56;;;;;;;4.03;2.60;;;6.00;56.90;;;;;;5042284;28;20228;-85
2021/04/10 01:45:24;;;;;;;4.80;2.80;;;6.10;55.60;;;;;;5056047;28;20197;-85
2021/04/10 01:47:52;;;;;;;4.60;2.90;;;6.20;55.60;;;;;;5039501;28;20715;-87
2021/04/10 01:50:20;;;;;;;4.87;2.70;;;6.20;55.30;;;;;;5046422;28;20222;-85
2021/04/10 01:52:48;;;;;;;5.10;2.60;;;6.30;55.70;;;;;;5043412;28;20238;-85
2021/04/10 01:55:15;;;;;;;5.00;2.63;;;6.30;56.70;;;;;;5051357;28;20197;-86
2021/04/10 02:01:06;;;;;;;4.53;2.60;;;6.40;58.00;;;;;;5047048;28;20665;-85
2021/04/10 02:03:33;;;;;;;5.37;2.53;;;6.40;55.00;;;;;;5036348;28;20232;-85
2021/04/10 02:06:01;;;;;;;4.43;2.70;;;6.40;55.30;;;;;;5035736;28;20218;-86
2021/04/10 02:08:29;;;;;;;6.97;3.10;;;6.40;55.60;;;;;;5035659;28;20230;-85
2021/04/10 02:10:56;;;;;;;4.93;2.53;;;6.50;57.10;;;;;;5035364;28;20314;-85
2021/04/10 02:13:24;;;;;;;4.00;2.43;;;6.50;56.80;;;;;;5034711;28;20226;-85
2021/04/10 02:15:51;;;;;;;3.37;2.50;;;6.50;56.00;;;;;;5041581;28;20202;-86
2021/04/10 02:18:19;;;;;;;6.07;2.90;;;6.60;55.90;;;;;;5046554;28;20234;-85
2021/04/10 02:20:46;;;;;;;4.23;2.53;;;6.60;56.30;;;;;;5035642;28;20199;-85
2021/04/10 02:23:13;;;;;;;3.17;2.40;;;6.60;55.30;;;;;;5037589;28;20265;-85
2021/04/10 02:25:40;;;;;;;4.50;2.73;;;6.50;59.00;;;;;;5037089;28;20210;-86
2021/04/10 02:28:08;;;;;;;3.03;2.00;;;6.60;57.10;;;;;;5036035;28;20241;-85
2021/04/10 02:30:34;;;;;;;3.67;2.47;;;6.60;55.60;;;;;;5039044;28;20214;-85
2021/04/10 02:33:05;;;;;;;3.50;2.70;;;6.60;55.20;;;;;;5037192;28;20222;-85
2021/04/10 02:35:39;;;;;;;5.03;3.63;;;6.70;54.90;;;;;;5038831;28;20209;-85
2021/04/10 02:38:08;;;;;;;5.07;2.63;;;6.70;56.30;;;;;;5036960;28;20229;-88
2021/04/10 02:40:38;;;;;;;4.00;2.33;;;6.80;56.30;;;;;;5037888;28;20209;-88
2021/04/10 02:43:08;;;;;;;5.57;2.93;;;6.90;54.60;;;;;;5036583;28;20241;-87
2021/04/10 02:45:35;;;;;;;5.97;2.80;;;6.90;54.50;;;;;;5040878;28;20201;-86
2021/04/10 02:48:06;;;;;;;5.17;2.77;;;6.90;55.30;;;;;;5038007;28;20234;-88
2021/04/10 02:50:36;;;;;;;3.87;3.30;;;6.80;59.60;;;;;;5040193;28;20213;-93
2021/04/10 02:53:05;;;;;;;4.20;2.53;;;6.90;56.40;;;;;;5043806;28;20233;-88
2021/04/10 02:55:34;;;;;;;4.27;2.60;;;6.90;54.70;;;;;;5039022;28;20206;-88
2021/04/10 02:58:04;;;;;;;4.53;2.63;;;6.90;57.60;;;;;;5040355;28;20290;-87
2021/04/10 03:00:32;;;;;;;3.37;2.60;;;6.90;57.20;;;;;;5049521;28;20223;-87
2021/04/10 03:03:01;;;;;;;4.77;2.50;;;6.80;57.90;;;;;;5046734;28;20226;-88
2021/04/10 03:05:29;;;;;;;5.70;3.00;;;6.90;55.90;;;;;;5037808;28;20637;-87
2021/04/10 03:07:57;;;;;;;4.17;2.60;;;6.80;55.30;;;;;;5037197;28;20665;-89
2021/04/10 03:10:24;;;;;;;4.93;3.37;;;6.80;54.50;;;;;;5034609;28;20579;-87
2021/04/10 03:12:52;;;;;;;6.60;2.90;;;6.90;55.40;;;;;;5036262;28;20226;-88
2021/04/10 03:15:19;;;;;;;6.67;2.47;;;6.80;57.20;;;;;;5034598;28;20556;-88
2021/04/10 03:17:47;;;;;;;3.30;2.27;;;6.80;57.70;;;;;;5035276;28;20572;-88
2021/04/10 03:20:15;;;;;;;4.23;2.47;;;6.90;56.10;;;;;;5040180;28;20203;-88
2021/04/10 03:22:46;;;;;;;4.07;2.27;;;6.90;56.20;;;;;;5055708;28;20283;-88
2021/04/10 03:25:15;;;;;;;5.23;2.80;;;6.90;55.70;;;;;;5051191;28;20202;-88
2021/04/10 03:27:41;;;;;;;4.67;3.60;;;6.90;55.20;;;;;;5034529;28;20245;-88
2021/04/10 03:30:11;;;;;;;7.80;2.67;;;6.80;55.90;;;;;;5034455;28;20229;-87
2021/04/10 03:32:39;;;;;;;4.23;2.40;;;6.70;56.00;;;;;;5034246;28;20234;-88
2021/04/10 03:35:06;;;;;;;7.30;2.80;;;6.70;55.30;;;;;;5034022;28;20203;-88
2021/04/10 03:37:33;;;;;;;7.03;2.60;;;6.70;55.50;;;;;;5036795;28;20226;-88
2021/04/10 03:40:00;;;;;;;6.50;2.60;;;6.70;54.50;;;;;;5035845;28;20226;-88
2021/04/10 03:42:38;;;;;;;5.27;2.67;;;6.70;56.00;;;;;;5054643;28;20300;-88
2021/04/10 03:45:06;;;;;;;4.73;2.80;;;6.70;56.10;;;;;;5034680;28;20202;-88
2021/04/10 03:47:33;;;;;;;8.33;2.70;;;6.70;55.20;;;;;;5033207;28;20255;-88
2021/04/10 03:49:59;;;;;;;3.53;2.43;;;6.70;56.10;;;;;;5047695;28;20707;-87
2021/04/10 03:52:26;;;;;;;5.43;2.57;;;6.70;54.80;;;;;;5056934;28;20259;-87
2021/04/10 03:54:52;;;;;;;3.77;2.63;;;6.70;55.90;;;;;;5047378;28;20199;-87
2021/04/10 03:57:19;;;;;;;6.03;3.10;;;6.70;55.50;;;;;;5038693;28;20741;-87
2021/04/10 03:59:46;;;;;;;3.43;2.50;;;6.60;56.20;;;;;;5044946;28;20208;-87
2021/04/10 04:02:13;;;;;;;5.83;2.80;;;6.60;53.10;;;;;;5060625;28;20583;-87
2021/04/10 04:04:39;;;;;;;4.20;2.60;;;6.60;55.10;;;;;;5050085;28;20198;-88
2021/04/10 04:07:06;;;;;;;3.50;2.50;;;6.60;55.50;;;;;;5040578;28;20206;-87
2021/04/10 04:09:32;;;;;;;3.97;2.57;;;6.60;55.40;;;;;;5038312;28;20198;-87
2021/04/10 04:11:58;;;;;;;7.23;2.80;;;6.60;54.90;;;;;;5052813;28;20219;-87
2021/04/10 04:14:25;;;;;;;4.00;2.77;;;6.70;56.00;;;;;;5044806;28;20275;-87
2021/04/10 04:16:52;;;;;;;5.50;2.60;;;6.80;54.20;;;;;;5048667;28;20202;-87
2021/04/10 04:19:19;;;;;;;5.10;2.70;;;6.90;54.60;;;;;;5051130;28;20246;-87
2021/04/10 04:21:45;;;;;;;7.27;2.90;;;7.00;52.80;;;;;;5053000;28;20213;-88
2021/04/10 04:24:11;;;;;;;3.90;2.50;;;7.10;53.40;;;;;;5041649;28;20246;-87
2021/04/10 04:26:38;;;;;;;5.50;3.03;;;7.00;51.00;;;;;;5040163;28;20202;-87
2021/04/10 04:29:04;;;;;;;5.00;3.00;;;7.10;52.20;;;;;;5044777;28;20236;-87
2021/04/10 04:31:31;;;;;;;7.27;2.80;;;7.10;52.70;;;;;;5062640;28;20614;-87
2021/04/10 04:33:58;;;;;;;5.33;2.57;;;7.10;50.40;;;;;;5056192;28;20282;-87
2021/04/10 04:36:25;;;;;;;9.10;2.90;;;7.20;51.50;;;;;;5060162;28;20198;-93
2021/04/10 04:38:51;;;;;;;8.43;2.47;;;7.20;48.40;;;;;;5053212;28;20226;-88
2021/04/10 04:41:17;;;;;;;3.97;2.50;;;7.30;50.00;;;;;;5060558;28;20204;-88
2021/04/10 04:43:44;;;;;;;4.07;2.17;;;7.30;48.70;;;;;;5047997;28;20227;-88
2021/04/10 04:46:11;;;;;;;4.20;2.43;;;7.40;47.70;;;;;;5045914;28;20252;-87
2021/04/10 04:48:38;;;;;;;4.00;2.40;;;7.40;48.80;;;;;;5056137;28;20230;-87
2021/04/10 04:51:06;;;;;;;5.20;2.73;;;7.40;46.30;;;;;;5053391;28;20218;-88
2021/04/10 04:53:32;;;;;;;3.07;2.37;;;7.50;47.60;;;;;;5037558;28;20222;-88
2021/04/10 04:55:59;;;;;;;4.67;2.57;;;7.50;47.40;;;;;;5038215;28;20198;-88
2021/04/10 04:58:25;;;;;;;4.93;2.70;;;7.50;49.10;;;;;;5036777;28;20570;-88
2021/04/10 05:00:52;;;;;;;5.70;3.23;;;7.50;48.10;;;;;;5037257;28;20209;-88
2021/04/10 05:03:18;;;;;;;5.33;2.67;;;7.40;47.90;;;;;;5039776;28;20234;-88
2021/04/10 05:05:44;;;;;;;3.47;2.37;;;7.50;48.60;;;;;;5054402;28;20255;-88
2021/04/10 05:08:12;;;;;;;3.87;2.47;;;7.50;48.20;;;;;;5042867;28;20233;-88
2021/04/10 05:10:38;;;;;;;6.17;2.90;;;7.60;48.40;;;;;;5038119;28;20658;-88
2021/04/10 05:13:05;;;;;;;6.23;3.30;;;7.60;48.20;;;;;;5037593;28;20614;-88
2021/04/10 05:15:32;;;;;;;4.93;2.50;;;7.50;46.30;;;;;;5039718;28;20203;-88
2021/04/10 05:17:59;;;;;;;4.70;2.30;;;7.60;47.30;;;;;;5039184;28;20682;-88
2021/04/10 05:20:25;;;;;;;5.07;2.97;;;7.70;46.50;;;;;;5038333;28;20650;-88
2021/04/10 05:22:53;;;;;;;5.43;2.70;;;7.80;46.60;;;;;;5046179;28;20634;-88
2021/04/10 05:25:21;;;;;;;3.57;2.57;;;7.90;46.60;;;;;;5058039;28;20206;-88
2021/04/10 05:27:48;;;;;;;6.63;2.70;;;8.00;46.80;;;;;;5058069;28;20226;-88
2021/04/10 05:30:15;;;;;;;4.80;2.57;;;8.10;46.80;;;;;;5061433;28;20278;-88
2021/04/10 05:32:42;;;;;;;5.90;2.83;;;8.10;46.80;;;;;;5059249;28;20285;-88
2021/04/10 05:35:09;;;;;;;3.80;2.67;;;8.10;46.80;;;;;;5044506;28;20642;-88
2021/04/10 05:37:36;;;;;;;4.53;2.57;;;8.30;46.30;;;;;;5051497;28;20225;-87
2021/04/10 05:43:25;;;;;;;5.57;3.00;;;8.60;44.60;;;;;;5041027;28;20245;-87
2021/04/10 05:45:52;;;;;;;4.20;2.70;;;8.80;43.70;;;;;;5042414;28;20195;-87
2021/04/10 05:48:18;;;;;;;3.63;3.00;;;9.00;43.80;;;;;;5040218;28;20235;-88
2021/04/10 05:54:24;;;;;;;4.00;2.30;;;9.20;43.40;;;;;;5060485;28;20616;-88
2021/04/10 05:56:50;;;;;;;4.63;2.55;;;9.50;41.70;;;;;;5061881;28;20261;-89
2021/04/10 05:59:17;;;;;;;4.00;2.22;;;9.60;40.60;;;;;;5061582;28;20287;-88
2021/04/10 06:01:44;;;;;;;4.10;2.40;;;9.80;40.70;;;;;;5049925;28;20202;-88
2021/04/10 06:04:11;;;;;;;8.10;2.47;;;9.90;40.70;;;;;;5040309;28;20222;-88
2021/04/10 06:09:59;;;;;;;5.63;2.60;;;10.00;38.60;;;;;;5036732;28;20626;-88
2021/04/10 06:12:25;;;;;;;6.40;2.70;;;10.10;39.60;;;;;;5043482;28;20202;-87
2021/04/10 06:14:52;;;;;;;7.95;2.60;;;10.20;39.20;;;;;;5052587;28;20207;-89
2021/04/10 06:17:19;;;;;;;4.32;2.67;;;10.40;38.30;;;;;;5036966;28;20206;-88
2021/04/10 06:19:45;;;;;;;5.22;2.33;;;10.70;37.20;;;;;;5040395;28;20217;-88
2021/04/10 06:22:11;;;;;;;3.63;2.72;;;11.20;37.10;;;;;;5038262;28;20206;-89
2021/04/10 06:24:38;;;;;;;4.40;2.47;;;11.70;35.10;;;;;;5042335;28;20206;-88
2021/04/10 06:27:11;;;;;;;5.10;2.35;;;12.50;34.30;;;;;;5044870;28;20288;-88
2021/04/10 06:29:37;;;;;;;6.10;2.53;;;13.30;30.80;;;;;;5040477;28;20222;-87
2021/04/10 06:32:05;;;;;;;6.97;2.42;;;14.20;29.40;;;;;;5041528;28;20197;-88
2021/04/10 06:34:31;;;;;;;6.15;3.22;;;14.40;27.30;;;;;;5042471;28;20303;-89
2021/04/10 06:36:58;;;;;;;4.40;2.35;;;14.70;27.60;;;;;;5035046;28;20249;-89
2021/04/10 06:39:24;;;;;;;5.28;2.33;;;15.00;27.90;;;;;;5034042;28;20291;-88
2021/04/10 06:41:51;;;;;;;4.85;2.28;;;14.90;27.80;;;;;;5053321;28;20202;-88
2021/04/10 06:44:25;;;;;;;6.55;2.70;;;14.80;27.70;;;;;;5038939;28;20229;-88
2021/04/10 06:46:53;;;;;;;6.47;2.05;;;14.50;27.50;;;;;;5040095;28;20201;-88
2021/04/10 06:49:21;;;;;;;5.63;2.50;;;14.30;27.30;;;;;;5038757;28;20682;-88
2021/04/10 06:58:36;;;;;;;4.53;2.28;;;13.80;28.80;;;;;;5044233;28;20288;-87
2021/04/10 07:01:06;;;;;;;3.55;2.15;;;13.60;30.50;;;;;;5056301;28;20213;-87
2021/04/10 07:03:36;;;;;;;3.13;2.05;;;13.20;32.20;;;;;;5056785;28;20223;-87
2021/04/10 07:06:07;;;;;;;6.05;2.28;;;13.30;30.60;;;;;;5047194;28;20218;-88
2021/04/10 07:08:34;;;;;;;3.38;2.45;;;13.50;30.60;;;;;;5045473;28;20250;-87
2021/04/10 07:11:00;;;;;;;4.97;2.30;;;13.60;30.80;;;;;;5043477;28;20280;-87
2021/04/10 07:13:27;;;;;;;4.82;2.40;;;13.60;31.80;;;;;;5041798;28;20601;-87
2021/04/10 07:15:53;;;;;;;6.18;2.38;;;13.90;32.90;;;;;;5045153;28;20261;-87
2021/04/10 07:18:19;;;;;;;5.00;2.17;;;14.00;33.80;;;;;;5044201;28;20249;-87
2021/04/10 07:24:09;;;;;;;3.50;1.80;;;14.30;29.40;;;;;;5056330;28;20248;-87
2021/04/10 07:26:57;;;;;;;6.57;1.90;;;14.60;29.70;;;;;;5046983;28;20198;-86
2021/04/10 07:29:34;;;;;;;3.88;2.00;;;15.00;27.90;;;;;;5047439;28;20217;-87
2021/04/10 07:32:01;;;;;;;6.10;1.80;;;14.90;30.20;;;;;;5046135;28;20206;-84
2021/04/10 07:34:28;;;;;;;3.80;2.10;;;14.90;27.80;;;;;;5044064;28;20681;-84
2021/04/10 07:36:56;;;;;;;7.18;3.58;;;15.10;27.90;;;;;;5044172;28;20246;-87
2021/04/10 07:40:11;;;;;;;5.15;2.30;;;15.30;29.30;;;;;;5056431;28;20256;-86
2021/04/10 07:42:40;;;;;;;4.68;1.90;;;15.60;30.40;;;;;;5039112;28;20237;-87
2021/04/10 07:45:22;;;;;;;5.03;2.08;;;15.70;28.40;;;;;;5055781;28;20201;-84
2021/04/10 07:47:50;;;;;;;4.53;2.22;;;15.90;28.60;;;;;;5055604;28;20225;-85
2021/04/10 07:50:19;;;;;;;3.97;1.92;;;16.00;28.70;;;;;;5056865;28;20279;-85
2021/04/10 07:52:46;;;;;;;3.67;1.77;;;16.20;27.60;;;;;;5057801;28;20363;-86
2021/04/10 07:55:37;;;;;;;3.67;2.20;;;16.20;28.90;;;;;;5057297;28;20209;-86
2021/04/10 07:58:38;;;;;;;5.57;1.88;;;16.20;28.90;;;;;;5055638;28;20267;-85
2021/04/10 08:01:06;;;;;;;4.55;2.45;;;16.10;28.80;;;;;;4980921;28;20204;-85
2021/04/10 08:04:13;;;;;;;4.07;2.20;;;16.20;28.90;;;;;;4993045;28;20227;-85
2021/04/10 08:06:53;;;;;;;6.20;2.45;;;16.50;29.10;;;;;;5026653;28;20284;-85
2021/04/10 08:09:28;;;;;;;3.45;2.08;;;16.60;29.20;;;;;;5046766;28;20229;-86
2021/04/10 08:11:55;;;;;;;5.80;2.40;;;16.60;28.30;;;;;;5043327;28;20236;-86
2021/04/10 08:14:24;;;;;;;5.40;2.20;;;16.70;29.30;;;;;;5043558;28;20693;-87
2021/04/10 08:16:53;;;;;;;3.95;2.00;;;17.00;27.20;;;;;;5045726;28;20202;-89
2021/04/10 08:19:29;;;;;;;7.00;2.10;;;17.00;26.70;;;;;;5048409;28;20226;-88
2021/04/10 08:21:56;;;;;;;3.10;2.05;;;17.00;27.00;;;;;;5045165;28;20197;-85
2021/04/10 08:24:32;;;;;;;5.07;2.00;;;17.00;27.40;;;;;;5054546;28;20232;-86
2021/04/10 08:27:01;;;;;;;6.22;1.77;;;16.70;28.70;;;;;;5054394;28;20197;-85
2021/04/10 08:29:38;;;;;;;3.30;2.17;;;16.60;29.20;;;;;;5042367;28;20226;-88
2021/04/10 08:32:05;;;;;;;3.97;1.83;;;16.20;28.80;;;;;;5042725;28;20225;-87
2021/04/10 08:34:32;;;;;;;2.92;1.85;;;16.30;29.00;;;;;;5045329;28;20231;-87
2021/04/10 08:37:02;;;;;;;5.07;2.05;;;16.40;29.00;;;;;;5044205;28;20555;-88
2021/04/10 08:39:31;;;;;;;4.85;1.88;;;16.60;29.20;;;;;;5051140;28;20218;-87
2021/04/10 08:41:59;;;;;;;6.35;2.00;;;16.70;29.30;;;;;;5047844;28;20195;-84
2021/04/10 08:44:32;;;;;;;5.97;2.10;;;16.50;27.50;;;;;;5041987;28;20230;-87
2021/04/10 08:47:01;;;;;;;4.03;1.98;;;16.30;29.00;;;;;;5045183;28;20206;-87
2021/04/10 08:49:31;;;;;;;6.07;2.40;;;16.40;29.10;;;;;;5050396;28;20312;-88
2021/04/10 08:52:10;;;;;;;3.35;2.08;;;16.40;29.00;;;;;;5049478;28;20214;-88
2021/04/10 08:54:38;;;;;;;5.45;1.77;;;16.60;29.20;;;;;;5046506;28;20241;-87
2021/04/10 08:57:09;;;;;;;5.28;2.10;;;17.00;28.30;;;;;;5054356;28;20296;-86
2021/04/10 08:59:40;;;;;;;6.25;1.88;;;16.90;29.50;;;;;;5035029;28;20278;-86
2021/04/10 09:02:10;;;;;;;4.05;1.70;;;16.70;29.30;;;;;;5058540;28;20645;-86
2021/04/10 09:05:04;;;;;;;4.32;1.90;;;16.50;29.10;;;;;;5062794;28;20225;-86
2021/04/10 09:11:00;;;;;;;7.07;2.08;;;17.00;27.40;;;;;;5047195;28;20225;-86
2021/04/10 09:13:45;;;;;;;4.50;2.45;;;17.50;27.60;;;;;;5048981;28;20226;-86
2021/04/10 09:16:40;;;;;;;5.25;1.80;;;18.00;27.20;;;;;;5049823;28;20198;-91
2021/04/10 09:19:17;;;;;;;5.13;2.05;;;18.00;25.20;;;;;;5044541;28;20596;-88
2021/04/10 09:21:55;;;;;;;2.00;1.70;;;17.30;25.30;;;;;;5054070;28;20296;-88
2021/04/10 09:24:30;;;;;;;6.80;2.40;;;17.40;26.00;;;;;;5058687;28;20253;-86
2021/04/10 09:27:04;;;;;;;4.72;2.33;;;18.20;24.70;;;;;;5051016;28;20281;-85
2021/04/10 09:29:52;;;;;;;5.95;2.33;;;19.10;22.90;;;;;;5053352;28;20240;-87
2021/04/10 09:32:36;;;;;;;3.70;2.08;;;19.90;22.20;;;;;;5048580;28;20200;-86
2021/04/10 09:35:08;;;;;;;6.03;2.20;;;20.90;21.00;;;;;;5046550;28;20202;-88
2021/04/10 09:37:59;;;;;;;6.05;1.90;;;22.00;18.60;;;;;;5042750;28;20272;-84
2021/04/10 09:40:48;;;;;;;5.70;2.30;;;22.10;19.70;;;;;;5054700;28;20742;-84
2021/04/10 09:43:19;;;;;;;6.45;1.90;;;23.20;18.70;;;;;;5051220;28;20696;-81
2021/04/10 09:45:51;;;;;;;4.13;2.20;;;23.90;17.40;;;;;;5043723;28;20202;-90
2021/04/10 09:48:20;;;;;;;3.33;2.10;;;24.00;16.70;;;;;;5044629;28;20238;-83
2021/04/10 09:51:10;;;;;;;4.50;2.28;;;21.90;18.30;;;;;;5047625;28;20226;-82
2021/04/10 09:53:40;;;;;;;7.20;2.30;;;20.30;20.30;;;;;;5044474;28;20245;-85
2021/04/10 09:59:28;;;;;;;4.57;2.33;;;19.20;22.20;;;;;;5059783;28;20286;-84
2021/04/10 10:01:54;;;;;;;3.53;2.30;;;19.00;23.60;;;;;;5043317;28;20563;-84
2021/04/10 10:04:21;;;;;;;4.68;2.40;;;20.00;23.30;;;;;;5044915;28;20260;-83
2021/04/10 10:06:52;;;;;;;7.68;2.10;;;21.10;21.60;;;;;;5045906;28;20620;-83
2021/04/10 10:09:27;;;;;;;3.95;1.88;;;21.90;19.60;;;;;;5045500;28;20230;-83
2021/04/10 10:11:55;;;;;;;4.93;2.50;;;21.50;18.00;;;;;;5045493;28;20676;-84
2021/04/10 10:14:21;;;;;;;18.50;15.55;;;21.50;19.20;;;;;;5043030;28;20258;-83
2021/04/10 10:16:48;;;;;;;22.77;18.95;;;22.00;18.50;;;;;;5054552;28;20204;-84
2021/04/10 10:19:19;;;;;;;15.32;11.10;;;22.30;18.40;;;;;;5061346;28;20265;-85
2021/04/10 10:21:45;;;;;;;5.90;2.90;;;22.00;18.70;;;;;;5064202;28;20186;-82
2021/04/10 10:24:19;;;;;;;6.28;4.53;;;21.90;18.90;;;;;;5061798;28;20236;-84
2021/04/10 10:26:45;;;;;;;6.57;2.88;;;22.10;18.90;;;;;;5060070;28;20185;-83
2021/04/10 10:29:15;;;;;;;10.85;7.85;;;22.70;20.00;;;;;;5056932;28;20340;-83
2021/04/10 10:31:43;;;;;;;5.15;2.55;;;23.30;18.10;;;;;;5066584;28;20222;-79
2021/04/10 10:34:11;;;;;;;6.28;3.50;;;23.80;17.70;;;;;;5062469;28;20260;-81
2021/04/10 10:36:39;;;;;;;7.75;2.53;;;23.70;17.10;;;;;;5060139;28;20205;-82
2021/04/10 10:39:09;;;;;;;5.22;2.72;;;23.40;18.20;;;;;;5058290;28;20225;-82
2021/04/10 10:41:43;;;;;;;5.47;2.47;;;23.00;17.10;;;;;;5057410;28;20219;-80
2021/04/10 10:44:10;;;;;;;5.50;3.22;;;22.90;19.60;;;;;;5056417;28;20639;-82
2021/04/10 10:46:36;;;;;;;5.32;3.08;;;22.70;18.90;;;;;;5059929;28;20194;-81
2021/04/10 10:49:07;;;;;;;10.48;5.05;;;22.40;19.70;;;;;;5058387;28;20225;-82
2021/04/10 10:51:36;;;;;;;8.77;4.63;;;22.50;19.30;;;;;;5062710;28;20248;-81
2021/04/10 10:54:03;;;;;;;7.03;3.30;;;22.40;18.90;;;;;;5060714;28;20240;-81
2021/04/10 10:56:31;;;;;;;6.85;3.72;;;22.70;19.20;;;;;;5059273;28;20221;-82
2021/04/10 10:58:59;;;;;;;5.90;2.53;;;22.80;18.70;;;;;;5060279;28;20714;-80
2021/04/10 11:01:27;;;;;;;10.50;5.18;;;23.30;18.10;;;;;;5065337;28;20629;-81
2021/04/10 11:10:04;;;;;;;3.28;2.63;;;23.10;18.60;;;;;;5041122;28;20298;-81
2021/04/10 11:12:30;;;;;;;6.90;3.80;;;22.10;19.40;;;;;;5065453;28;20221;-81
2021/04/10 11:14:59;;;;;;;5.88;2.53;;;21.70;21.30;;;;;;5069796;28;20198;-87
2021/04/10 11:17:29;;;;;;;5.65;3.10;;;21.10;21.90;;;;;;5070466;28;20606;-84
2021/04/10 11:19:58;;;;;;;3.05;2.47;;;20.20;21.60;;;;;;5070268;28;20190;-82
2021/04/10 11:25:49;;;;;;;5.32;2.95;;;19.80;23.00;;;;;;5063024;28;20184;-86
2021/04/10 11:28:29;;;;;;;13.52;8.95;;;19.90;24.90;;;;;;5063259;28;20229;-84
2021/04/10 11:34:32;;;;;;;4.40;2.40;;;19.70;21.40;;;;;;5063923;28;20224;-86
2021/04/10 11:36:59;;;;;;;5.32;2.35;;;19.80;22.50;;;;;;5063552;28;20205;-86
2021/04/10 11:39:28;;;;;;;4.07;2.47;;;20.00;20.80;;;;;;5059129;28;20234;-86
2021/04/10 11:41:54;;;;;;;5.15;2.85;;;20.10;20.30;;;;;;5061762;28;20205;-86
2021/04/10 11:44:40;;;;;;;5.72;2.63;;;20.00;23.30;;;;;;5061318;28;20229;-86
2021/04/10 11:47:10;;;;;;;5.63;2.97;;;19.20;21.70;;;;;;5067897;28;20194;-86
2021/04/10 11:49:38;;;;;;;7.28;3.80;;;18.60;23.60;;;;;;5070094;28;20217;-86
2021/04/10 11:52:10;;;;;;;5.18;3.60;;;19.00;23.70;;;;;;5066843;28;20217;-85
2021/04/10 11:54:45;;;;;;;4.45;2.45;;;19.10;22.40;;;;;;5063282;28;20546;-85
2021/04/10 11:57:27;;;;;;;5.60;2.70;;;18.70;23.70;;;;;;5055388;28;20197;-89
2021/04/10 12:03:16;;;;;;;5.03;2.80;;;17.50;24.60;;;;;;5053591;28;20703;-87
2021/04/10 12:05:44;;;;;;;4.97;2.70;;;18.00;24.00;;;;;;5054172;28;20619;-87
2021/04/10 12:11:33;;;;;;;9.65;2.70;;;18.40;23.60;;;;;;5061887;28;20224;-86
2021/04/10 12:14:00;;;;;;;3.45;2.28;;;18.70;22.80;;;;;;5063208;28;20226;-87
2021/04/10 12:16:26;;;;;;;13.43;3.00;;;18.80;24.50;;;;;;5066861;28;20198;-87
2021/04/10 12:18:53;;;;;;;7.22;2.55;;;18.80;23.60;;;;;;5064746;28;20240;-86
2021/04/10 12:21:20;;;;;;;3.75;2.40;;;19.10;25.40;;;;;;5069888;28;20202;-85
2021/04/10 12:23:47;;;;;;;5.05;2.50;;;19.00;23.50;;;;;;5070707;28;20673;-85
2021/04/10 12:26:13;;;;;;;4.60;2.50;;;19.40;23.40;;;;;;5069167;28;20204;-86
2021/04/10 12:28:40;;;;;;;4.55;2.45;;;19.40;22.00;;;;;;5065468;28;20255;-85
2021/04/10 12:31:10;;;;;;;7.13;2.75;;;19.30;22.40;;;;;;5061784;28;20312;-88
2021/04/10 12:33:37;;;;;;;5.30;2.50;;;18.50;22.90;;;;;;5053901;28;20236;-86
2021/04/10 12:39:26;;;;;;;5.03;2.78;;;17.40;25.40;;;;;;5042318;28;20564;-87
2021/04/10 12:45:20;;;;;;;3.55;2.10;;;18.40;24.80;;;;;;5035085;28;20566;-88
2021/04/10 12:51:08;;;;;;;7.05;2.78;;;18.60;23.30;;;;;;5034141;28;20221;-88
2021/04/10 12:53:34;;;;;;;5.05;2.55;;;18.40;23.20;;;;;;5037947;28;20248;-87
2021/04/10 12:56:02;;;;;;;4.93;2.40;;;17.90;24.80;;;;;;5033764;28;20692;-88
2021/04/10 12:58:28;;;;;;;6.55;2.40;;;18.00;24.60;;;;;;5033357;28;20234;-88
2021/04/10 13:00:55;;;;;;;6.55;2.22;;;18.30;26.20;;;;;;5034646;28;20198;-88
2021/04/10 13:03:22;;;;;;;5.47;2.28;;;18.60;24.80;;;;;;5033357;28;20230;-88
2021/04/10 13:05:49;;;;;;;8.52;2.78;;;18.40;23.10;;;;;;5036462;28;20206;-87
2021/04/10 13:08:15;;;;;;;7.82;2.95;;;18.50;24.80;;;;;;5037694;28;20237;-88
2021/04/10 13:10:42;;;;;;;4.57;2.92;;;18.40;23.90;;;;;;5037511;28;20226;-88
2021/04/10 13:13:09;;;;;;;12.82;3.88;;;18.40;24.20;;;;;;5035530;28;20226;-88
2021/04/10 13:15:35;;;;;;;3.97;2.90;;;18.10;24.70;;;;;;5036023;28;20650;-87
2021/04/10 13:18:02;;;;;;;5.63;3.00;;;18.10;24.20;;;;;;5037156;28;20287;-88
2021/04/10 13:20:29;;;;;;;8.35;3.53;;;18.00;24.70;;;;;;5041782;28;20244;-87
2021/04/10 13:22:55;;;;;;;6.97;3.20;;;17.80;26.00;;;;;;5036779;28;20229;-88
2021/04/10 13:25:22;;;;;;;6.07;3.20;;;17.90;24.40;;;;;;5035587;28;20263;-88
2021/04/10 13:27:49;;;;;;;7.93;4.78;;;18.00;24.30;;;;;;5034453;28;20632;-88
2021/04/10 13:30:18;;;;;;;5.68;3.05;;;17.90;24.60;;;;;;5036072;28;20248;-88
2021/04/10 13:32:44;;;;;;;5.63;3.00;;;17.90;26.00;;;;;;5036008;28;20234;-92
2021/04/10 13:35:11;;;;;;;15.38;9.43;;;17.80;24.80;;;;;;5036565;28;20233;-88
2021/04/10 13:41:01;;;;;;;5.65;2.83;;;17.50;27.20;;;;;;5040861;28;20250;-87
2021/04/10 13:43:27;;;;;;;5.68;2.90;;;17.50;25.90;;;;;;5043605;28;20304;-88
2021/04/10 13:45:54;;;;;;;8.68;2.90;;;17.70;25.20;;;;;;5053985;28;20201;-88
2021/04/10 13:58:26;;;;;;;5.35;3.28;;;18.00;26.10;;;;;;5055378;28;20279;-88
2021/04/10 14:00:52;;;;;;;8.43;3.40;;;18.10;26.60;;;;;;5055934;28;20201;-88
2021/04/10 14:03:20;;;;;;;5.38;3.30;;;17.80;26.80;;;;;;5055945;28;20245;-88
2021/04/10 14:05:47;;;;;;;4.63;3.08;;;17.90;25.50;;;;;;5056800;28;20549;-88
2021/04/10 14:08:19;;;;;;;6.25;3.30;;;17.80;26.20;;;;;;5057068;28;20352;-87
2021/04/10 14:17:29;;;;;;;13.95;7.18;;;17.90;26.00;;;;;;5055774;28;20188;-88
2021/04/10 14:19:56;;;;;;;4.57;3.25;;;17.90;26.50;;;;;;5056805;28;20198;-88
2021/04/10 14:22:25;;;;;;;8.50;5.05;;;17.70;28.30;;;;;;5045639;28;20186;-87
2021/04/10 14:24:51;;;;;;;7.57;3.70;;;17.60;26.90;;;;;;5045321;28;20203;-87
2021/04/10 14:27:18;;;;;;;4.88;3.63;;;17.60;26.50;;;;;;5050724;28;20203;-87